createdAt,value
2022-12-08T00:01:34.801Z,98393.40
2022-12-08T00:04:04.275Z,98394.60
2022-12-08T00:06:57.330Z,98403.40
2022-12-08T00:09:36.433Z,98402.20
2022-12-08T00:12:16.640Z,98402.60
2022-12-08T00:14:47.282Z,98396.40
2022-12-08T00:17:16.617Z,98401.60
2022-12-08T00:19:44.878Z,98402.00
2022-12-08T00:22:13.477Z,98401.00
2022-12-08T00:24:44.941Z,98405.60
2022-12-08T00:27:15.752Z,98410.60
2022-12-08T00:29:45.183Z,98405.60
2022-12-08T00:32:13.307Z,98405.80
2022-12-08T00:34:41.051Z,98409.80
2022-12-08T00:37:08.736Z,98417.00
2022-12-08T00:39:36.415Z,98413.80
2022-12-08T00:42:13.508Z,98418.20
2022-12-08T00:44:43.477Z,98417.80
2022-12-08T00:47:12.722Z,98413.00
2022-12-08T00:49:41.092Z,98415.20
2022-12-08T00:52:09.271Z,98420.80
2022-12-08T00:54:37.070Z,98420.00
2022-12-08T00:57:04.823Z,98414.40
2022-12-08T00:59:32.625Z,98425.20
2022-12-08T01:02:00.341Z,98418.40
2022-12-08T01:04:28.063Z,98420.80
2022-12-08T01:06:55.833Z,98412.40
2022-12-08T01:09:23.492Z,98416.80
2022-12-08T01:11:51.139Z,98415.20
2022-12-08T01:14:18.898Z,98413.60
2022-12-08T01:16:47.033Z,98422.80
2022-12-08T01:19:17.271Z,98426.40
2022-12-08T01:21:46.516Z,98436.80
2022-12-08T01:24:18.647Z,98432.80
2022-12-08T01:26:48.853Z,98433.60
2022-12-08T01:29:17.020Z,98436.80
2022-12-08T01:31:44.797Z,98433.80
2022-12-08T01:34:12.780Z,98437.80
2022-12-08T01:36:41.027Z,98439.00
2022-12-08T01:39:15.732Z,98441.00
2022-12-08T01:41:46.596Z,98438.80
2022-12-08T01:44:14.188Z,98441.80
2022-12-08T01:46:45.013Z,98431.00
2022-12-08T01:49:28.805Z,98431.80
2022-12-08T01:52:09.598Z,98430.40
2022-12-08T01:54:45.857Z,98420.80
2022-12-08T01:57:37.179Z,98421.00
2022-12-08T02:00:14.198Z,98415.60
2022-12-08T02:03:06.438Z,98412.80
2022-12-08T02:05:37.844Z,98424.20
2022-12-08T02:08:13.182Z,98418.80
2022-12-08T02:10:43.561Z,98416.40
2022-12-08T02:13:16.130Z,98421.20
2022-12-08T02:16:17.920Z,98416.60
2022-12-08T02:19:30.791Z,98414.40
2022-12-08T02:22:14.853Z,98412.80
2022-12-08T02:24:57.359Z,98420.80
2022-12-08T02:27:52.973Z,98420.40
2022-12-08T02:30:28.657Z,98414.80
2022-12-08T02:33:27.033Z,98417.80
2022-12-08T02:36:27.080Z,98422.00
2022-12-08T02:39:11.096Z,98420.00
2022-12-08T02:42:08.166Z,98414.60
2022-12-08T02:44:45.971Z,98414.20
2022-12-08T02:47:19.149Z,98416.40
2022-12-08T02:49:47.452Z,98412.00
2022-12-08T02:52:15.078Z,98412.80
2022-12-08T02:55:06.416Z,98411.40
2022-12-08T02:58:02.209Z,98410.40
2022-12-08T03:01:05.523Z,98415.00
2022-12-08T03:04:21.427Z,98415.40
2022-12-08T03:07:04.488Z,98424.00
2022-12-08T03:09:41.881Z,98428.00
2022-12-08T03:12:26.158Z,98419.00
2022-12-08T03:15:00.558Z,98417.80
2022-12-08T03:17:31.423Z,98422.80
2022-12-08T03:20:06.715Z,98423.00
2022-12-08T03:22:36.557Z,98425.20
2022-12-08T03:25:06.455Z,98425.20
2022-12-08T03:27:34.421Z,98419.40
2022-12-08T03:30:03.238Z,98415.80
2022-12-08T03:32:44.371Z,98417.60
2022-12-08T03:35:21.757Z,98419.40
2022-12-08T03:37:49.628Z,98419.40
2022-12-08T03:40:20.800Z,98413.00
2022-12-08T03:42:48.779Z,98409.80
2022-12-08T03:45:16.403Z,98409.00
2022-12-08T03:47:44.127Z,98411.80
2022-12-08T03:50:11.917Z,98410.00
2022-12-08T03:52:39.772Z,98404.20
2022-12-08T03:55:08.172Z,98410.40
2022-12-08T03:57:35.933Z,98410.80
2022-12-08T04:00:07.002Z,98407.40
2022-12-08T04:02:34.930Z,98409.00
2022-12-08T04:05:02.892Z,98403.60
2022-12-08T04:07:30.765Z,98403.40
2022-12-08T04:09:58.499Z,98409.00
2022-12-08T04:12:26.268Z,98404.60
2022-12-08T04:14:54.008Z,98409.20
2022-12-08T04:17:21.668Z,98396.80
2022-12-08T04:19:49.349Z,98399.20
2022-12-08T04:22:17.017Z,98401.00
2022-12-08T04:24:44.725Z,98399.40
2022-12-08T04:27:12.397Z,98394.40
2022-12-08T04:29:40.234Z,98383.00
2022-12-08T04:32:07.892Z,98394.40
2022-12-08T04:34:35.661Z,98389.40
2022-12-08T04:37:03.353Z,98392.60
2022-12-08T04:39:31.087Z,98392.00
2022-12-08T04:41:58.755Z,98389.20
2022-12-08T04:44:26.416Z,98390.60
2022-12-08T04:46:54.088Z,98392.00
2022-12-08T04:49:21.917Z,98398.40
2022-12-08T04:51:49.655Z,98408.20
2022-12-08T04:54:17.332Z,98387.60
2022-12-08T04:56:45.146Z,98391.40
2022-12-08T04:59:12.804Z,98384.00
2022-12-08T05:01:40.588Z,98377.20
2022-12-08T05:04:08.426Z,98376.00
2022-12-08T05:06:36.233Z,98371.20
2022-12-08T05:09:04.130Z,98379.40
2022-12-08T05:11:31.784Z,98378.40
2022-12-08T05:13:59.460Z,98383.80
2022-12-08T05:16:27.269Z,98383.60
2022-12-08T05:18:54.865Z,98389.80
2022-12-08T05:21:22.664Z,98397.60
2022-12-08T05:23:50.342Z,98387.60
2022-12-08T05:26:18.013Z,98384.20
2022-12-08T05:28:45.726Z,98387.00
2022-12-08T05:31:16.241Z,98392.40
2022-12-08T05:33:45.985Z,98397.20
2022-12-08T05:36:15.451Z,98393.40
2022-12-08T05:38:44.696Z,98390.80
2022-12-08T05:41:20.614Z,98389.40
2022-12-08T05:43:48.671Z,98384.80
2022-12-08T05:46:17.493Z,98391.20
2022-12-08T05:48:45.299Z,98386.60
2022-12-08T05:51:20.750Z,98385.00
2022-12-08T05:53:50.556Z,98389.00
2022-12-08T05:56:18.993Z,98386.00
2022-12-08T05:58:47.537Z,98393.00
2022-12-08T06:01:33.978Z,98395.80
2022-12-08T06:04:03.935Z,98401.80
2022-12-08T06:06:35.091Z,98400.60
2022-12-08T06:09:06.545Z,98405.40
2022-12-08T06:11:34.585Z,98412.20
2022-12-08T06:14:03.239Z,98409.00
2022-12-08T06:16:31.205Z,98415.20
2022-12-08T06:18:58.971Z,98413.40
2022-12-08T06:21:26.747Z,98418.80
2022-12-08T06:23:55.233Z,98420.60
2022-12-08T06:26:23.588Z,98422.80
2022-12-08T06:28:52.094Z,98421.00
2022-12-08T06:31:23.953Z,98417.60
2022-12-08T06:33:53.559Z,98425.60
2022-12-08T06:36:25.338Z,98426.80
2022-12-08T06:38:53.276Z,98422.40
2022-12-08T06:41:21.102Z,98430.20
2022-12-08T06:43:48.933Z,98426.80
2022-12-08T06:46:20.118Z,98426.80
2022-12-08T06:48:50.542Z,98430.40
2022-12-08T06:51:22.754Z,98429.60
2022-12-08T06:53:50.618Z,98436.20
2022-12-08T06:56:20.123Z,98440.80
2022-12-08T06:58:52.305Z,98453.40
2022-12-08T07:01:21.145Z,98444.60
2022-12-08T07:03:49.072Z,98441.20
2022-12-08T07:06:23.485Z,98444.40
2022-12-08T07:08:52.145Z,98440.60
2022-12-08T07:11:22.256Z,98450.60
2022-12-08T07:13:51.161Z,98443.00
2022-12-08T07:16:19.105Z,98438.60
2022-12-08T07:18:46.888Z,98438.60
2022-12-08T07:21:16.383Z,98443.40
2022-12-08T07:23:54.353Z,98445.00
2022-12-08T07:26:26.903Z,98440.60
2022-12-08T07:28:54.776Z,98442.60
2022-12-08T07:31:25.451Z,98444.60
2022-12-08T07:33:53.723Z,98445.00
2022-12-08T07:36:22.464Z,98446.80
2022-12-08T07:38:51.188Z,98447.20
2022-12-08T07:41:23.661Z,98440.60
2022-12-08T07:43:53.840Z,98442.00
2022-12-08T07:46:25.224Z,98442.80
2022-12-08T07:48:54.795Z,98441.40
2022-12-08T07:51:23.212Z,98441.20
2022-12-08T07:53:54.423Z,98441.40
2022-12-08T07:56:23.413Z,98437.80
2022-12-08T07:58:51.724Z,98437.00
2022-12-08T08:01:32.594Z,98436.20
2022-12-08T08:04:05.290Z,98442.60
2022-12-08T08:06:36.301Z,98445.40
2022-12-08T08:09:04.927Z,98439.80
2022-12-08T08:11:32.641Z,98436.00
2022-12-08T08:14:00.600Z,98431.00
2022-12-08T08:16:31.050Z,98435.60
2022-12-08T08:19:02.747Z,98425.20
2022-12-08T08:21:45.417Z,98426.40
2022-12-08T08:24:13.517Z,98422.60
2022-12-08T08:26:41.241Z,98422.20
2022-12-08T08:29:08.901Z,98422.40
2022-12-08T08:31:36.635Z,98424.60
2022-12-08T08:34:06.506Z,98421.00
2022-12-08T08:36:34.714Z,98422.40
2022-12-08T08:39:03.656Z,98425.80
2022-12-08T08:41:31.498Z,98428.20
2022-12-08T08:43:59.307Z,98429.40
2022-12-08T08:46:27.158Z,98423.40
2022-12-08T08:48:55.701Z,98425.00
2022-12-08T08:51:23.835Z,98428.00
2022-12-08T08:53:51.583Z,98430.40
2022-12-08T08:56:19.965Z,98426.20
2022-12-08T08:58:49.551Z,98421.00
2022-12-08T09:01:21.253Z,98419.40
2022-12-08T09:03:49.499Z,98414.00
2022-12-08T09:06:18.378Z,98412.20
2022-12-08T09:08:47.723Z,98408.80
2022-12-08T09:11:18.397Z,98400.80
2022-12-08T09:13:51.130Z,98400.20
2022-12-08T09:16:20.047Z,98401.80
2022-12-08T09:18:51.106Z,98402.20
2022-12-08T09:21:23.834Z,98399.40
2022-12-08T09:23:56.366Z,98393.00
2022-12-08T09:26:26.843Z,98389.60
2022-12-08T09:28:57.025Z,98387.80
2022-12-08T09:31:25.508Z,98392.40
2022-12-08T09:33:53.302Z,98388.00
2022-12-08T09:36:21.403Z,98390.00
2022-12-08T09:38:50.240Z,98382.00
2022-12-08T09:41:37.949Z,98377.80
2022-12-08T09:44:49.369Z,98373.00
2022-12-08T09:47:36.387Z,98376.20
2022-12-08T09:50:19.724Z,98370.40
2022-12-08T09:52:56.770Z,98368.80
2022-12-08T09:55:40.542Z,98359.40
2022-12-08T09:58:27.754Z,98358.20
2022-12-08T10:00:56.195Z,98364.40
2022-12-08T10:03:29.661Z,98357.80
2022-12-08T10:06:06.353Z,98361.40
2022-12-08T10:09:29.971Z,98360.80
2022-12-08T10:12:14.464Z,98362.60
2022-12-08T10:14:47.691Z,98356.20
2022-12-08T10:17:34.472Z,98357.40
2022-12-08T10:20:26.975Z,98364.60
2022-12-08T10:23:13.203Z,98358.00
2022-12-08T10:25:50.988Z,98350.80
2022-12-08T10:28:18.700Z,98345.60
2022-12-08T10:30:46.528Z,98347.00
2022-12-08T10:33:18.459Z,98341.40
2022-12-08T10:35:50.401Z,98348.40
2022-12-08T10:38:33.476Z,98340.40
2022-12-08T10:41:07.301Z,98341.00
2022-12-08T10:43:50.031Z,98340.40
2022-12-08T10:46:23.379Z,98337.20
2022-12-08T10:49:13.299Z,98334.40
2022-12-08T10:51:43.541Z,98338.00
2022-12-08T10:54:38.685Z,98334.40
2022-12-08T10:57:06.483Z,98329.40
2022-12-08T10:59:34.240Z,98327.60
2022-12-08T11:02:02.031Z,98331.00
2022-12-08T11:04:38.428Z,98322.80
2022-12-08T11:07:11.553Z,98327.00
2022-12-08T11:09:55.274Z,98316.60
2022-12-08T11:12:28.456Z,98318.60
2022-12-08T11:15:03.459Z,98318.40
2022-12-08T11:17:41.727Z,98316.00
2022-12-08T11:20:09.599Z,98312.40
2022-12-08T11:22:41.367Z,98310.00
2022-12-08T11:25:11.881Z,98309.00
2022-12-08T11:27:45.207Z,98309.40
2022-12-08T11:30:38.990Z,98307.40
2022-12-08T11:33:19.410Z,98310.60
2022-12-08T11:36:14.792Z,98312.20
2022-12-08T11:38:48.905Z,98308.40
2022-12-08T11:41:26.960Z,98305.60
2022-12-08T11:44:42.218Z,98305.60
2022-12-08T11:47:26.207Z,98311.00
2022-12-08T11:50:34.873Z,98313.00
2022-12-08T11:53:05.977Z,98311.80
2022-12-08T11:55:48.187Z,98307.00
2022-12-08T11:58:41.278Z,98304.60
2022-12-08T12:01:26.345Z,98307.20
2022-12-08T12:04:11.123Z,98308.00
2022-12-08T12:07:15.077Z,98307.00
2022-12-08T12:10:08.654Z,98301.80
2022-12-08T12:13:16.677Z,98303.20
2022-12-08T12:16:26.130Z,98303.20
2022-12-08T12:19:03.078Z,98310.00
2022-12-08T12:21:42.198Z,98306.00
2022-12-08T12:24:25.494Z,98301.40
2022-12-08T12:27:15.231Z,98302.00
2022-12-08T12:29:59.055Z,98300.00
2022-12-08T12:32:41.422Z,98297.20
2022-12-08T12:35:37.924Z,98308.60
2022-12-08T12:38:37.221Z,98303.60
2022-12-08T12:41:08.256Z,98308.60
2022-12-08T12:43:38.905Z,98305.60
2022-12-08T12:46:24.888Z,98303.20
2022-12-08T12:48:53.303Z,98294.20
2022-12-08T12:51:46.037Z,98292.20
2022-12-08T12:54:26.477Z,98297.00
2022-12-08T12:57:16.618Z,98289.80
2022-12-08T12:59:55.287Z,98283.60
2022-12-08T13:02:49.972Z,98283.20
2022-12-08T13:05:31.518Z,98273.60
2022-12-08T13:08:05.154Z,98274.40
2022-12-08T13:10:38.045Z,98273.20
2022-12-08T13:13:16.359Z,98275.00
2022-12-08T13:16:07.581Z,98274.80
2022-12-08T13:18:56.152Z,98266.20
2022-12-08T13:21:38.780Z,98265.40
2022-12-08T13:24:31.333Z,98268.20
2022-12-08T13:27:04.888Z,98266.80
2022-12-08T13:29:37.388Z,98265.20
2022-12-08T13:32:28.007Z,98263.00
2022-12-08T13:35:00.485Z,98264.40
2022-12-08T13:37:56.051Z,98265.00
2022-12-08T13:40:30.298Z,98260.80
2022-12-08T13:43:17.032Z,98259.00
2022-12-08T13:53:34.897Z,98261.40
2022-12-08T13:57:36.200Z,98261.60
2022-12-08T14:00:17.155Z,98252.80
2022-12-08T14:02:51.252Z,98248.00
2022-12-08T14:05:40.593Z,98252.80
2022-12-08T14:08:58.970Z,98250.40
2022-12-08T14:11:44.252Z,98248.60
2022-12-08T14:14:53.993Z,98251.80
2022-12-08T14:17:19.699Z,98252.60
2022-12-08T14:20:13.372Z,98253.80
2022-12-08T14:22:43.915Z,98252.80
2022-12-08T14:25:15.959Z,98251.80
2022-12-08T14:27:45.530Z,98258.80
2022-12-08T14:30:13.921Z,98257.00
2022-12-08T14:32:52.460Z,98264.60
2022-12-08T14:35:31.983Z,98262.00
2022-12-08T14:38:03.919Z,98255.20
2022-12-08T14:40:39.452Z,98265.60
2022-12-08T14:43:10.291Z,98269.60
2022-12-08T14:45:41.120Z,98265.80
2022-12-08T14:48:44.820Z,98263.40
2022-12-08T14:51:18.878Z,98260.60
2022-12-08T14:53:54.668Z,98263.40
2022-12-08T14:56:38.409Z,98265.80
2022-12-08T14:59:34.120Z,98263.80
2022-12-08T15:02:19.866Z,98267.60
2022-12-08T15:05:06.230Z,98272.00
2022-12-08T15:07:52.216Z,98269.00
2022-12-08T15:10:30.907Z,98264.80
2022-12-08T15:13:11.006Z,98274.00
2022-12-08T15:15:55.836Z,98266.00
2022-12-08T15:18:40.438Z,98270.60
2022-12-08T15:21:13.037Z,98273.60
2022-12-08T15:23:49.043Z,98269.60
2022-12-08T15:26:23.152Z,98274.60
2022-12-08T15:28:52.163Z,98280.80
2022-12-08T15:31:21.086Z,98271.00
2022-12-08T15:33:48.926Z,98276.00
2022-12-08T15:36:16.732Z,98276.60
2022-12-08T15:38:44.450Z,98280.40
2022-12-08T15:41:15.127Z,98276.20
2022-12-08T15:43:43.156Z,98275.60
2022-12-08T15:46:12.053Z,98269.80
2022-12-08T15:48:40.136Z,98273.40
2022-12-08T15:51:08.194Z,98271.20
2022-12-08T15:53:35.898Z,98268.80
2022-12-08T15:58:57.013Z,98263.40
2022-12-08T16:01:26.431Z,98258.80
2022-12-08T16:04:47.508Z,98265.20
2022-12-08T16:09:41.352Z,98260.20
2022-12-08T16:13:40.270Z,98260.80
2022-12-08T16:18:23.178Z,98255.40
2022-12-08T16:23:44.081Z,98254.20
2022-12-08T16:26:26.101Z,98258.80
2022-12-08T16:29:04.789Z,98264.60
2022-12-08T16:31:33.381Z,98264.40
2022-12-08T16:34:01.302Z,98263.20
2022-12-08T16:36:29.249Z,98271.20
2022-12-08T16:38:56.962Z,98265.20
2022-12-08T16:41:43.456Z,98271.40
2022-12-08T16:44:11.191Z,98269.40
2022-12-08T16:46:41.358Z,98271.40
2022-12-08T16:49:09.930Z,98268.00
2022-12-08T16:51:37.730Z,98272.80
2022-12-08T16:54:05.465Z,98275.00
2022-12-08T16:56:33.817Z,98271.20
2022-12-08T16:59:02.566Z,98273.40
2022-12-08T17:01:30.627Z,98270.40
2022-12-08T17:04:29.755Z,98272.40
2022-12-08T17:06:46.778Z,98264.40
2022-12-08T17:09:14.415Z,98259.40
2022-12-08T17:11:43.586Z,98258.40
2022-12-08T17:14:14.662Z,98257.20
2022-12-08T17:16:43.577Z,98262.00
2022-12-08T17:19:16.071Z,98260.00
2022-12-08T17:21:44.748Z,98265.00
2022-12-08T17:24:15.863Z,98269.00
2022-12-08T17:26:46.529Z,98265.60
2022-12-08T17:29:14.288Z,98266.00
2022-12-08T17:31:42.191Z,98272.60
2022-12-08T17:34:11.174Z,98268.80
2022-12-08T17:36:40.987Z,98274.60
2022-12-08T17:39:13.341Z,98279.60
2022-12-08T17:41:44.226Z,98278.20
2022-12-08T17:44:16.306Z,98274.00
2022-12-08T17:46:50.679Z,98273.20
2022-12-08T17:49:24.768Z,98275.40
2022-12-08T17:51:56.173Z,98270.20
2022-12-08T17:54:26.256Z,98266.60
2022-12-08T17:56:54.455Z,98266.40
2022-12-08T17:59:22.150Z,98268.00
2022-12-08T18:01:52.690Z,98271.20
2022-12-08T18:04:20.912Z,98272.00
2022-12-08T18:06:48.796Z,98276.40
2022-12-08T18:09:16.911Z,98275.60
2022-12-08T18:11:46.332Z,98273.00
2022-12-08T18:14:16.353Z,98274.20
2022-12-08T18:16:46.611Z,98270.00
2022-12-08T18:19:15.942Z,98277.20
2022-12-08T18:21:43.838Z,98268.60
2022-12-08T18:24:23.253Z,98271.60
2022-12-08T18:26:52.666Z,98274.40
2022-12-08T18:29:21.708Z,98273.20
2022-12-08T18:31:50.382Z,98268.00
2022-12-08T18:34:19.063Z,98270.00
2022-12-08T18:36:47.899Z,98268.20
2022-12-08T18:39:31.419Z,98266.60
2022-12-08T18:42:02.774Z,98263.60
2022-12-08T18:44:30.589Z,98256.60
2022-12-08T18:46:58.321Z,98256.20
2022-12-08T18:49:26.581Z,98257.60
2022-12-08T18:51:54.339Z,98257.80
2022-12-08T18:54:27.721Z,98262.40
2022-12-08T18:57:06.254Z,98260.80
2022-12-08T18:59:34.180Z,98263.60
2022-12-08T19:02:02.033Z,98268.20
2022-12-08T19:04:31.834Z,98266.00
2022-12-08T19:07:01.388Z,98267.00
2022-12-08T19:09:29.639Z,98272.80
2022-12-08T19:11:57.960Z,98270.80
2022-12-08T19:14:28.561Z,98268.60
2022-12-08T19:16:57.755Z,98266.80
2022-12-08T19:19:27.496Z,98269.40
2022-12-08T19:21:56.097Z,98264.40
2022-12-08T19:24:25.321Z,98263.20
2022-12-08T19:26:53.082Z,98266.40
2022-12-08T19:29:20.990Z,98264.60
2022-12-08T19:31:48.759Z,98264.40
2022-12-08T19:34:19.307Z,98258.40
2022-12-08T19:36:47.114Z,98254.00
2022-12-08T19:39:40.344Z,98253.80
2022-12-08T19:42:34.893Z,98251.60
2022-12-08T19:45:21.200Z,98248.20
2022-12-08T19:47:49.050Z,98252.20
2022-12-08T19:50:35.950Z,98248.40
2022-12-08T19:53:12.726Z,98257.00
2022-12-08T19:55:42.792Z,98254.80
2022-12-08T19:58:11.461Z,98248.20
2022-12-08T20:00:41.335Z,98246.20
2022-12-08T20:03:10.495Z,98248.40
2022-12-08T20:05:40.442Z,98246.80
2022-12-08T20:08:08.393Z,98247.40
2022-12-08T20:10:41.383Z,98245.40
2022-12-08T20:13:29.895Z,98236.00
2022-12-08T20:15:57.908Z,98241.40
2022-12-08T20:18:25.859Z,98239.20
2022-12-08T20:20:53.503Z,98242.00
2022-12-08T20:23:21.304Z,98241.60
2022-12-08T20:25:49.051Z,98245.80
2022-12-08T20:28:18.898Z,98242.00
2022-12-08T20:30:48.969Z,98240.80
2022-12-08T20:33:19.540Z,98243.80
2022-12-08T20:35:48.413Z,98243.60
2022-12-08T20:38:16.477Z,98245.20
2022-12-08T20:40:46.992Z,98241.60
2022-12-08T20:43:14.802Z,98239.80
2022-12-08T20:45:42.503Z,98239.20
2022-12-08T20:48:11.000Z,98234.40
2022-12-08T20:50:38.689Z,98231.00
2022-12-08T20:53:06.805Z,98234.00
2022-12-08T20:55:35.759Z,98237.20
2022-12-08T20:58:03.767Z,98237.20
2022-12-08T21:00:31.671Z,98242.00
2022-12-08T21:02:59.698Z,98239.20
2022-12-08T21:05:27.835Z,98232.80
2022-12-08T21:07:55.808Z,98246.40
2022-12-08T21:10:23.742Z,98239.20
2022-12-08T21:12:51.576Z,98241.00
2022-12-08T21:15:19.478Z,98232.00
2022-12-08T21:17:47.259Z,98236.00
2022-12-08T21:20:15.211Z,98240.40
2022-12-08T21:22:42.949Z,98235.20
2022-12-08T21:25:10.907Z,98229.80
2022-12-08T21:27:39.117Z,98231.80
2022-12-08T21:30:09.053Z,98231.20
2022-12-08T21:32:40.492Z,98232.20
2022-12-08T21:35:09.355Z,98235.80
2022-12-08T21:37:37.412Z,98233.80
2022-12-08T21:40:07.097Z,98235.80
2022-12-08T21:42:44.592Z,98236.00
2022-12-08T21:45:18.781Z,98231.00
2022-12-08T21:47:48.853Z,98230.20
2022-12-08T21:50:18.592Z,98232.00
2022-12-08T21:52:49.000Z,98236.20
2022-12-08T21:55:19.157Z,98237.00
2022-12-08T21:57:47.490Z,98236.00
2022-12-08T22:00:17.711Z,98234.20
2022-12-08T22:02:47.046Z,98234.00
2022-12-08T22:05:15.287Z,98230.00
2022-12-08T22:07:43.271Z,98222.40
2022-12-08T22:10:12.235Z,98223.40
2022-12-08T22:12:40.688Z,98227.00
2022-12-08T22:15:11.069Z,98229.20
2022-12-08T22:17:41.760Z,98220.20
2022-12-08T22:20:14.574Z,98220.20
2022-12-08T22:22:42.710Z,98223.80
2022-12-08T22:25:11.968Z,98221.40
2022-12-08T22:27:41.163Z,98221.00
2022-12-08T22:30:10.869Z,98213.20
2022-12-08T22:32:39.449Z,98218.60
2022-12-08T22:35:07.888Z,98218.80
2022-12-08T22:37:35.686Z,98226.60
2022-12-08T22:40:05.101Z,98228.20
2022-12-08T22:42:33.091Z,98233.00
2022-12-08T22:45:00.825Z,98230.40
2022-12-08T22:47:28.540Z,98231.80
2022-12-08T22:49:56.374Z,98228.20
2022-12-08T22:52:24.267Z,98225.40
2022-12-08T22:54:52.047Z,98225.80
2022-12-08T22:57:19.717Z,98219.40
2022-12-08T22:59:47.412Z,98218.20
2022-12-08T23:02:15.159Z,98215.60
2022-12-08T23:04:43.324Z,98211.80
2022-12-08T23:07:11.079Z,98212.60
2022-12-08T23:09:38.841Z,98219.00
2022-12-08T23:12:06.876Z,98215.60
2022-12-08T23:14:34.779Z,98215.40
2022-12-08T23:17:02.614Z,98212.80
2022-12-08T23:19:30.642Z,98213.00
2022-12-08T23:21:58.423Z,98211.60
2022-12-08T23:24:26.350Z,98210.40
2022-12-08T23:26:54.063Z,98206.80
2022-12-08T23:29:21.818Z,98209.40
2022-12-08T23:31:49.645Z,98213.00
2022-12-08T23:34:17.476Z,98208.60
2022-12-08T23:36:45.423Z,98203.80
2022-12-08T23:39:13.656Z,98206.60
2022-12-08T23:41:41.411Z,98204.40
2022-12-08T23:44:09.348Z,98203.00
2022-12-08T23:46:37.115Z,98208.60
2022-12-08T23:49:04.879Z,98214.60
2022-12-08T23:51:32.938Z,98216.00
2022-12-08T23:54:00.791Z,98225.20
2022-12-08T23:56:30.416Z,98217.00
2022-12-08T23:59:00.746Z,98211.60
